sensor_id;sensor_type;location;lat;lon;timestamp;pressure;altitude;pressure_sealevel;temperature;humidity
48792;BME280;34587;48.816;9.420;2023-02-28T00:01:12;99529.44;;;-1.73;57.73
48792;BME280;34587;48.816;9.420;2023-02-28T00:03:38;99521.66;;;-1.76;57.79
48792;BME280;34587;48.816;9.420;2023-02-28T00:06:09;99523.41;;;-1.75;57.94
48792;BME280;34587;48.816;9.420;2023-02-28T00:08:35;99515.13;;;-1.71;57.80
48792;BME280;34587;48.816;9.420;2023-02-28T00:11:01;99528.28;;;-1.80;58.15
48792;BME280;34587;48.816;9.420;2023-02-28T00:13:27;99525.69;;;-1.82;58.33
48792;BME280;34587;48.816;9.420;2023-02-28T00:16:04;99523.00;;;-1.85;59.00
48792;BME280;34587;48.816;9.420;2023-02-28T00:18:29;99521.63;;;-1.97;59.65
48792;BME280;34587;48.816;9.420;2023-02-28T00:20:55;99510.38;;;-1.83;59.20
48792;BME280;34587;48.816;9.420;2023-02-28T00:23:20;99527.31;;;-1.84;58.98
48792;BME280;34587;48.816;9.420;2023-02-28T00:25:45;99521.47;;;-2.00;60.56
48792;BME280;34587;48.816;9.420;2023-02-28T00:28:11;99518.31;;;-1.95;60.27
48792;BME280;34587;48.816;9.420;2023-02-28T00:30:36;99511.13;;;-1.86;59.96
48792;BME280;34587;48.816;9.420;2023-02-28T00:33:01;99519.41;;;-1.90;60.50
48792;BME280;34587;48.816;9.420;2023-02-28T00:35:26;99526.34;;;-1.86;60.28
48792;BME280;34587;48.816;9.420;2023-02-28T00:37:52;99518.72;;;-1.86;60.24
48792;BME280;34587;48.816;9.420;2023-02-28T00:40:17;99518.72;;;-2.05;61.41
48792;BME280;34587;48.816;9.420;2023-02-28T00:42:42;99516.66;;;-1.94;60.95
48792;BME280;34587;48.816;9.420;2023-02-28T00:45:08;99518.47;;;-1.92;60.92
48792;BME280;34587;48.816;9.420;2023-02-28T00:47:33;99521.13;;;-1.89;61.12
48792;BME280;34587;48.816;9.420;2023-02-28T00:49:59;99521.00;;;-1.92;61.27
48792;BME280;34587;48.816;9.420;2023-02-28T00:52:24;99520.75;;;-1.98;61.72
48792;BME280;34587;48.816;9.420;2023-02-28T00:54:50;99524.63;;;-1.87;61.23
48792;BME280;34587;48.816;9.420;2023-02-28T00:57:15;99521.00;;;-1.92;61.38
48792;BME280;34587;48.816;9.420;2023-02-28T00:59:40;99519.41;;;-1.90;61.78
48792;BME280;34587;48.816;9.420;2023-02-28T05:17:08;99478.41;;;-1.38;67.75
48792;BME280;34587;48.816;9.420;2023-02-28T05:19:33;99474.13;;;-1.39;67.90
48792;BME280;34587;48.816;9.420;2023-02-28T05:21:59;99485.16;;;-1.38;67.96
48792;BME280;34587;48.816;9.420;2023-02-28T05:24:24;99478.78;;;-1.49;68.40
48792;BME280;34587;48.816;9.420;2023-02-28T05:26:51;99466.38;;;-1.42;67.88
48792;BME280;34587;48.816;9.420;2023-02-28T05:29:17;99471.59;;;-1.39;67.82
48792;BME280;34587;48.816;9.420;2023-02-28T05:31:43;99474.13;;;-1.39;67.89
48792;BME280;34587;48.816;9.420;2023-02-28T05:34:08;99475.03;;;-1.37;67.74
48792;BME280;34587;48.816;9.420;2023-02-28T05:36:36;99475.84;;;-1.38;67.34
48792;BME280;34587;48.816;9.420;2023-02-28T05:39:02;99476.66;;;-1.39;67.15
48792;BME280;34587;48.816;9.420;2023-02-28T05:41:28;99483.34;;;-1.41;67.04
48792;BME280;34587;48.816;9.420;2023-02-28T05:43:53;99489.91;;;-1.46;67.10
48792;BME280;34587;48.816;9.420;2023-02-28T05:46:19;99482.44;;;-1.43;67.24
48792;BME280;34587;48.816;9.420;2023-02-28T05:48:46;99482.00;;;-1.33;67.03
48792;BME280;34587;48.816;9.420;2023-02-28T05:51:12;99476.22;;;-1.28;66.49
48792;BME280;34587;48.816;9.420;2023-02-28T05:53:37;99482.22;;;-1.26;66.45
48792;BME280;34587;48.816;9.420;2023-02-28T05:56:03;99481.44;;;-1.25;66.25
48792;BME280;34587;48.816;9.420;2023-02-28T05:58:29;99483.91;;;-1.27;66.74
48792;BME280;34587;48.816;9.420;2023-02-28T06:00:57;99493.41;;;-1.23;66.38
48792;BME280;34587;48.816;9.420;2023-02-28T06:03:23;99485.81;;;-1.21;66.26
48792;BME280;34587;48.816;9.420;2023-02-28T06:05:48;99491.97;;;-1.16;66.09
48792;BME280;34587;48.816;9.420;2023-02-28T06:08:13;99495.94;;;-1.23;66.22
48792;BME280;34587;48.816;9.420;2023-02-28T06:10:38;99494.25;;;-1.22;66.01
48792;BME280;34587;48.816;9.420;2023-02-28T06:13:05;99495.88;;;-1.24;66.25
48792;BME280;34587;48.816;9.420;2023-02-28T06:15:30;99501.06;;;-1.21;65.88
48792;BME280;34587;48.816;9.420;2023-02-28T06:17:56;99503.63;;;-1.21;66.08
48792;BME280;34587;48.816;9.420;2023-02-28T06:20:23;99496.94;;;-1.19;65.76
48792;BME280;34587;48.816;9.420;2023-02-28T06:22:48;99507.22;;;-1.16;65.65
48792;BME280;34587;48.816;9.420;2023-02-28T06:25:15;99499.59;;;-1.16;66.01
48792;BME280;34587;48.816;9.420;2023-02-28T06:27:40;99504.81;;;-1.13;65.51
48792;BME280;34587;48.816;9.420;2023-02-28T06:30:06;99506.16;;;-1.21;65.28
48792;BME280;34587;48.816;9.420;2023-02-28T06:32:32;99507.22;;;-1.16;65.60
48792;BME280;34587;48.816;9.420;2023-02-28T06:34:57;99509.34;;;-1.06;64.89
48792;BME280;34587;48.816;9.420;2023-02-28T06:37:23;99514.44;;;-1.06;64.80
48792;BME280;34587;48.816;9.420;2023-02-28T06:39:51;99510.84;;;-1.11;64.78
48792;BME280;34587;48.816;9.420;2023-02-28T06:42:16;99523.84;;;-1.04;64.75
48792;BME280;34587;48.816;9.420;2023-02-28T06:44:41;99519.38;;;-1.09;64.48
48792;BME280;34587;48.816;9.420;2023-02-28T06:47:08;99525.28;;;-1.10;65.06
48792;BME280;34587;48.816;9.420;2023-02-28T06:49:34;99524.94;;;-0.97;64.60
48792;BME280;34587;48.816;9.420;2023-02-28T06:52:00;99518.38;;;-0.92;64.27
48792;BME280;34587;48.816;9.420;2023-02-28T06:54:25;99528.91;;;-0.83;64.11
48792;BME280;34587;48.816;9.420;2023-02-28T06:56:50;99532.25;;;-0.84;64.25
48792;BME280;34587;48.816;9.420;2023-02-28T06:59:17;99523.34;;;-0.95;63.83
48792;BME280;34587;48.816;9.420;2023-02-28T07:01:42;99530.84;;;-0.98;64.09
48792;BME280;34587;48.816;9.420;2023-02-28T07:04:07;99531.66;;;-0.99;64.18
48792;BME280;34587;48.816;9.420;2023-02-28T07:06:33;99537.75;;;-0.95;64.12
48792;BME280;34587;48.816;9.420;2023-02-28T07:08:59;99540.56;;;-0.88;64.15
48792;BME280;34587;48.816;9.420;2023-02-28T07:11:25;99538.75;;;-0.69;63.22
48792;BME280;34587;48.816;9.420;2023-02-28T07:13:53;99537.94;;;-0.68;63.42
48792;BME280;34587;48.816;9.420;2023-02-28T07:16:18;99544.19;;;-0.60;63.09
48792;BME280;34587;48.816;9.420;2023-02-28T07:18:44;99539.56;;;-0.70;62.72
48792;BME280;34587;48.816;9.420;2023-02-28T07:21:10;99542.09;;;-0.70;63.28
48792;BME280;34587;48.816;9.420;2023-02-28T07:23:37;99544.88;;;-0.64;62.81
48792;BME280;34587;48.816;9.420;2023-02-28T07:26:06;99544.28;;;-0.80;63.40
48792;BME280;34587;48.816;9.420;2023-02-28T07:28:32;99546.84;;;-0.80;63.43
48792;BME280;34587;48.816;9.420;2023-02-28T07:31:03;99549.63;;;-0.73;63.54
48792;BME280;34587;48.816;9.420;2023-02-28T07:33:29;99543.38;;;-0.59;63.16
48792;BME280;34587;48.816;9.420;2023-02-28T07:36:00;99549.41;;;-0.57;62.86
48792;BME280;34587;48.816;9.420;2023-02-28T07:38:26;99554.88;;;-0.69;62.74
48792;BME280;34587;48.816;9.420;2023-02-28T07:40:51;99546.97;;;-0.54;62.69
48792;BME280;34587;48.816;9.420;2023-02-28T07:43:17;99547.22;;;-0.48;62.79
48792;BME280;34587;48.816;9.420;2023-02-28T07:45:42;99555.19;;;-0.39;62.42
48792;BME280;34587;48.816;9.420;2023-02-28T07:48:07;99558.31;;;-0.46;62.43
48792;BME280;34587;48.816;9.420;2023-02-28T07:50:35;99554.22;;;-0.42;63.22
48792;BME280;34587;48.816;9.420;2023-02-28T07:53:00;99561.38;;;-0.55;62.75
48792;BME280;34587;48.816;9.420;2023-02-28T07:55:26;99560.09;;;-0.66;62.83
48792;BME280;34587;48.816;9.420;2023-02-28T07:57:51;99560.16;;;-0.64;62.80
48792;BME280;34587;48.816;9.420;2023-02-28T08:00:16;99562.72;;;-0.42;62.74
48792;BME280;34587;48.816;9.420;2023-02-28T08:02:42;99563.19;;;-0.52;62.56
48792;BME280;34587;48.816;9.420;2023-02-28T08:05:08;99560.06;;;-0.45;62.53
48792;BME280;34587;48.816;9.420;2023-02-28T08:07:33;99552.78;;;-0.36;61.66
48792;BME280;34587;48.816;9.420;2023-02-28T08:09:59;99556.81;;;-0.41;61.98
48792;BME280;34587;48.816;9.420;2023-02-28T08:12:24;99554.97;;;-0.45;61.81
48792;BME280;34587;48.816;9.420;2023-02-28T08:14:50;99560.16;;;-0.19;61.72
48792;BME280;34587;48.816;9.420;2023-02-28T08:17:15;99567.34;;;-0.09;60.74
48792;BME280;34587;48.816;9.420;2023-02-28T08:19:40;99556.25;;;-0.34;61.03
48792;BME280;34587;48.816;9.420;2023-02-28T08:22:06;99552.59;;;-0.40;61.64
48792;BME280;34587;48.816;9.420;2023-02-28T08:24:31;99552.31;;;-0.26;61.21
48792;BME280;34587;48.816;9.420;2023-02-28T08:26:56;99552.53;;;-0.19;61.07
48792;BME280;34587;48.816;9.420;2023-02-28T08:29:22;99551.81;;;0.07;60.75
48792;BME280;34587;48.816;9.420;2023-02-28T08:31:47;99557.81;;;0.33;60.88
48792;BME280;34587;48.816;9.420;2023-02-28T08:34:14;99573.91;;;0.31;59.61
48792;BME280;34587;48.816;9.420;2023-02-28T08:36:40;99567.22;;;0.10;59.74
48792;BME280;34587;48.816;9.420;2023-02-28T08:39:06;99570.38;;;0.05;60.00
48792;BME280;34587;48.816;9.420;2023-02-28T08:41:33;99562.28;;;0.15;60.17
48792;BME280;34587;48.816;9.420;2023-02-28T08:43:58;99558.97;;;0.17;60.23
48792;BME280;34587;48.816;9.420;2023-02-28T08:46:24;99553.91;;;0.43;59.28
48792;BME280;34587;48.816;9.420;2023-02-28T08:48:54;99565.41;;;0.08;59.76
48792;BME280;34587;48.816;9.420;2023-02-28T08:51:20;99567.22;;;0.10;59.96
48792;BME280;34587;48.816;9.420;2023-02-28T08:53:53;99567.56;;;-0.03;59.70
48792;BME280;34587;48.816;9.420;2023-02-28T08:56:19;99565.72;;;-0.07;60.10
48792;BME280;34587;48.816;9.420;2023-02-28T08:58:45;99570.88;;;0.18;59.66
48792;BME280;34587;48.816;9.420;2023-02-28T09:01:20;99570.84;;;0.17;59.51
48792;BME280;34587;48.816;9.420;2023-02-28T09:03:47;99572.78;;;0.48;59.08
48792;BME280;34587;48.816;9.420;2023-02-28T09:06:13;99569.09;;;0.89;58.30
48792;BME280;34587;48.816;9.420;2023-02-28T09:08:39;99566.09;;;1.01;57.39
48792;BME280;34587;48.816;9.420;2023-02-28T09:11:05;99569.34;;;0.71;57.95
48792;BME280;34587;48.816;9.420;2023-02-28T09:13:31;99569.09;;;0.64;58.26
48792;BME280;34587;48.816;9.420;2023-02-28T09:15:58;99578.44;;;0.63;58.44
48792;BME280;34587;48.816;9.420;2023-02-28T09:18:24;99575.06;;;0.64;57.98
48792;BME280;34587;48.816;9.420;2023-02-28T09:20:50;99577.13;;;0.50;58.01
48792;BME280;34587;48.816;9.420;2023-02-28T09:23:15;99570.06;;;0.67;57.48
48792;BME280;34587;48.816;9.420;2023-02-28T09:25:52;99572.47;;;0.88;57.84
48792;BME280;34587;48.816;9.420;2023-02-28T09:28:18;99561.25;;;1.09;56.62
48792;BME280;34587;48.816;9.420;2023-02-28T09:30:45;99559.31;;;1.28;56.44
48792;BME280;34587;48.816;9.420;2023-02-28T09:33:11;99569.00;;;1.39;56.25
48792;BME280;34587;48.816;9.420;2023-02-28T09:35:36;99574.56;;;1.00;56.95
48792;BME280;34587;48.816;9.420;2023-02-28T09:38:03;99576.09;;;0.95;57.17
48792;BME280;34587;48.816;9.420;2023-02-28T09:40:29;99572.56;;;1.44;56.27
48792;BME280;34587;48.816;9.420;2023-02-28T09:42:57;99575.72;;;1.64;55.23
48792;BME280;34587;48.816;9.420;2023-02-28T09:47:54;99575.09;;;1.71;54.62
48792;BME280;34587;48.816;9.420;2023-02-28T09:50:38;99578.25;;;1.62;55.07
48792;BME280;34587;48.816;9.420;2023-02-28T09:53:21;99578.81;;;2.41;53.29
48792;BME280;34587;48.816;9.420;2023-02-28T09:55:54;99577.34;;;2.49;53.25
48792;BME280;34587;48.816;9.420;2023-02-28T09:58:26;99587.22;;;2.06;52.91
48792;BME280;34587;48.816;9.420;2023-02-28T10:01:00;99582.25;;;2.11;53.41
48792;BME280;34587;48.816;9.420;2023-02-28T10:03:31;99583.91;;;2.41;52.55
48792;BME280;34587;48.816;9.420;2023-02-28T10:06:11;99585.19;;;1.95;52.92
48792;BME280;34587;48.816;9.420;2023-02-28T10:08:57;99593.03;;;2.01;53.37
48792;BME280;34587;48.816;9.420;2023-02-28T10:11:26;99597.41;;;2.05;53.47
48792;BME280;34587;48.816;9.420;2023-02-28T10:14:05;99594.25;;;2.14;53.30
48792;BME280;34587;48.816;9.420;2023-02-28T10:16:56;99580.97;;;2.57;52.41
48792;BME280;34587;48.816;9.420;2023-02-28T10:19:30;99592.16;;;2.00;52.87
48792;BME280;34587;48.816;9.420;2023-02-28T10:22:08;99577.75;;;4.09;49.79
48792;BME280;34587;48.816;9.420;2023-02-28T10:24:40;99574.25;;;4.95;46.28
48792;BME280;34587;48.816;9.420;2023-02-28T10:27:16;99577.00;;;4.57;46.89
48792;BME280;34587;48.816;9.420;2023-02-28T10:29:50;99589.38;;;4.34;47.78
48792;BME280;34587;48.816;9.420;2023-02-28T10:32:22;99587.53;;;4.72;46.91
48792;BME280;34587;48.816;9.420;2023-02-28T10:34:55;99580.44;;;5.59;44.93
48792;BME280;34587;48.816;9.420;2023-02-28T10:37:23;99576.75;;;6.72;41.73
48792;BME280;34587;48.816;9.420;2023-02-28T10:39:48;99572.16;;;7.30;40.03
48792;BME280;34587;48.816;9.420;2023-02-28T10:45:11;99592.59;;;7.12;40.28
48792;BME280;34587;48.816;9.420;2023-02-28T10:58:23;99581.47;;;4.23;46.99
48792;BME280;34587;48.816;9.420;2023-02-28T11:00:49;99571.41;;;6.54;42.13
48792;BME280;34587;48.816;9.420;2023-02-28T11:05:48;99561.44;;;10.52;33.98
48792;BME280;34587;48.816;9.420;2023-02-28T11:08:16;99564.16;;;10.25;34.79
48792;BME280;34587;48.816;9.420;2023-02-28T11:10:46;99564.28;;;9.76;34.90
48792;BME280;34587;48.816;9.420;2023-02-28T11:13:17;99555.72;;;8.90;36.65
48792;BME280;34587;48.816;9.420;2023-02-28T11:15:51;99575.09;;;6.77;40.61
48792;BME280;34587;48.816;9.420;2023-02-28T11:18:29;99572.38;;;6.63;41.26
48792;BME280;34587;48.816;9.420;2023-02-28T11:20:57;99569.00;;;7.77;38.55
48792;BME280;34587;48.816;9.420;2023-02-28T11:23:27;99564.41;;;7.35;40.04
48792;BME280;34587;48.816;9.420;2023-02-28T11:25:58;99561.50;;;8.20;38.47
48792;BME280;34587;48.816;9.420;2023-02-28T11:28:28;99541.88;;;8.74;36.49
48792;BME280;34587;48.816;9.420;2023-02-28T11:33:55;99544.47;;;8.72;37.45
48792;BME280;34587;48.816;9.420;2023-02-28T11:36:30;99539.34;;;9.38;36.37
48792;BME280;34587;48.816;9.420;2023-02-28T11:38:59;99546.03;;;8.28;36.53
48792;BME280;34587;48.816;9.420;2023-02-28T11:41:51;99542.59;;;10.09;35.11
48792;BME280;34587;48.816;9.420;2023-02-28T11:52:53;99536.72;;;8.62;37.89
48792;BME280;34587;48.816;9.420;2023-02-28T11:55:35;99536.75;;;9.17;36.34
48792;BME280;34587;48.816;9.420;2023-02-28T12:00:51;99540.16;;;8.67;36.56
48792;BME280;34587;48.816;9.420;2023-02-28T12:03:26;99542.56;;;8.25;37.23
48792;BME280;34587;48.816;9.420;2023-02-28T12:06:15;99535.78;;;8.37;37.76
48792;BME280;34587;48.816;9.420;2023-02-28T12:17:26;99522.06;;;8.64;37.44
48792;BME280;34587;48.816;9.420;2023-02-28T12:20:23;99539.63;;;7.54;38.13
48792;BME280;34587;48.816;9.420;2023-02-28T12:25:41;99518.63;;;8.72;37.98
48792;BME280;34587;48.816;9.420;2023-02-28T12:28:12;99520.31;;;8.60;37.00
48792;BME280;34587;48.816;9.420;2023-02-28T12:31:28;99510.91;;;9.29;35.77
48792;BME280;34587;48.816;9.420;2023-02-28T12:33:33;99516.31;;;7.35;39.65
48792;BME280;34587;48.816;9.420;2023-02-28T12:36:05;99514.03;;;6.65;41.27
48792;BME280;34587;48.816;9.420;2023-02-28T12:38:39;99511.94;;;7.25;40.99
48792;BME280;34587;48.816;9.420;2023-02-28T12:41:13;99510.16;;;7.15;40.12
48792;BME280;34587;48.816;9.420;2023-02-28T12:43:44;99509.91;;;6.84;41.14
48792;BME280;34587;48.816;9.420;2023-02-28T12:46:18;99508.19;;;6.86;40.68
48792;BME280;34587;48.816;9.420;2023-02-28T12:48:48;99494.53;;;6.95;39.99
48792;BME280;34587;48.816;9.420;2023-02-28T12:51:16;99498.78;;;6.90;40.66
48792;BME280;34587;48.816;9.420;2023-02-28T12:53:58;99502.84;;;6.65;40.61
48792;BME280;34587;48.816;9.420;2023-02-28T12:56:42;99494.22;;;6.60;42.19
48792;BME280;34587;48.816;9.420;2023-02-28T13:02:17;99501.00;;;6.49;41.66
48792;BME280;34587;48.816;9.420;2023-02-28T13:07:51;99505.88;;;6.24;41.59
48792;BME280;34587;48.816;9.420;2023-02-28T13:10:20;99503.78;;;5.92;42.84
48792;BME280;34587;48.816;9.420;2023-02-28T13:12:50;99505.56;;;5.97;42.63
48792;BME280;34587;48.816;9.420;2023-02-28T13:15:20;99488.63;;;6.17;42.04
48792;BME280;34587;48.816;9.420;2023-02-28T13:17:50;99488.25;;;6.62;41.38
48792;BME280;34587;48.816;9.420;2023-02-28T13:20:23;99478.59;;;6.43;41.43
48792;BME280;34587;48.816;9.420;2023-02-28T13:22:51;99500.53;;;6.92;41.56
48792;BME280;34587;48.816;9.420;2023-02-28T13:27:58;99500.97;;;5.76;42.82
48792;BME280;34587;48.816;9.420;2023-02-28T13:33:34;99486.97;;;6.22;42.50
48792;BME280;34587;48.816;9.420;2023-02-28T13:38:41;99486.16;;;6.26;41.53
48792;BME280;34587;48.816;9.420;2023-02-28T13:57:21;99469.81;;;7.18;41.54
48792;BME280;34587;48.816;9.420;2023-02-28T14:00:07;99488.47;;;6.88;41.12
48792;BME280;34587;48.816;9.420;2023-02-28T14:02:51;99484.75;;;6.53;41.95
48792;BME280;34587;48.816;9.420;2023-02-28T14:05:21;99493.94;;;6.32;41.81
48792;BME280;34587;48.816;9.420;2023-02-28T14:07:53;99481.50;;;5.91;42.87
48792;BME280;34587;48.816;9.420;2023-02-28T14:10:46;99485.63;;;5.80;43.25
48792;BME280;34587;48.816;9.420;2023-02-28T14:16:00;99481.81;;;6.21;42.69
48792;BME280;34587;48.816;9.420;2023-02-28T14:18:30;99478.50;;;6.32;42.30
48792;BME280;34587;48.816;9.420;2023-02-28T14:23:43;99478.25;;;7.01;42.09
48792;BME280;34587;48.816;9.420;2023-02-28T14:29:12;99480.59;;;6.70;41.56
48792;BME280;34587;48.816;9.420;2023-02-28T14:31:55;99482.53;;;6.09;42.65
48792;BME280;34587;48.816;9.420;2023-02-28T14:37:28;99483.44;;;6.14;43.32
48792;BME280;34587;48.816;9.420;2023-02-28T14:39:54;99486.16;;;6.25;42.52
48792;BME280;34587;48.816;9.420;2023-02-28T14:42:28;99497.22;;;6.16;42.52
48792;BME280;34587;48.816;9.420;2023-02-28T14:44:54;99490.34;;;6.15;42.93
48792;BME280;34587;48.816;9.420;2023-02-28T14:47:23;99488.88;;;6.40;42.78
48792;BME280;34587;48.816;9.420;2023-02-28T14:49:50;99488.84;;;6.35;42.87
48792;BME280;34587;48.816;9.420;2023-02-28T14:54:51;99498.97;;;6.20;43.60
48792;BME280;34587;48.816;9.420;2023-02-28T14:57:41;99488.03;;;6.41;43.21
48792;BME280;34587;48.816;9.420;2023-02-28T15:00:15;99490.44;;;6.24;43.42
48792;BME280;34587;48.816;9.420;2023-02-28T15:02:42;99496.50;;;6.31;43.06
48792;BME280;34587;48.816;9.420;2023-02-28T15:07:42;99505.78;;;6.15;43.73
48792;BME280;34587;48.816;9.420;2023-02-28T15:10:22;99506.06;;;5.71;43.95
48792;BME280;34587;48.816;9.420;2023-02-28T15:12:52;99504.91;;;5.51;44.79
48792;BME280;34587;48.816;9.420;2023-02-28T15:15:19;99515.38;;;5.63;44.93
48792;BME280;34587;48.816;9.420;2023-02-28T15:17:50;99506.59;;;5.47;45.10
48792;BME280;34587;48.816;9.420;2023-02-28T15:20:18;99505.81;;;5.53;45.33
48792;BME280;34587;48.816;9.420;2023-02-28T15:22:45;99515.00;;;5.37;45.34
48792;BME280;34587;48.816;9.420;2023-02-28T15:25:15;99505.97;;;5.06;46.05
48792;BME280;34587;48.816;9.420;2023-02-28T15:27:46;99504.38;;;5.14;45.81
48792;BME280;34587;48.816;9.420;2023-02-28T15:30:29;99514.56;;;5.08;46.13
48792;BME280;34587;48.816;9.420;2023-02-28T15:33:23;99516.88;;;5.47;46.09
48792;BME280;34587;48.816;9.420;2023-02-28T15:35:49;99507.88;;;5.19;45.70
48792;BME280;34587;48.816;9.420;2023-02-28T15:38:26;99509.47;;;5.12;46.27
48792;BME280;34587;48.816;9.420;2023-02-28T15:40:54;99506.19;;;5.21;46.53
48792;BME280;34587;48.816;9.420;2023-02-28T15:49:03;99515.13;;;4.90;46.78
48792;BME280;34587;48.816;9.420;2023-02-28T15:51:17;99507.44;;;4.92;47.44
48792;BME280;34587;48.816;9.420;2023-02-28T15:53:54;99505.66;;;4.87;46.76
48792;BME280;34587;48.816;9.420;2023-02-28T15:58:56;99510.34;;;4.61;47.08
48792;BME280;34587;48.816;9.420;2023-02-28T16:01:34;99507.56;;;4.49;47.59
48792;BME280;34587;48.816;9.420;2023-02-28T16:04:02;99508.44;;;4.50;47.83
48792;BME280;34587;48.816;9.420;2023-02-28T16:06:33;99510.09;;;4.48;47.97
48792;BME280;34587;48.816;9.420;2023-02-28T16:09:00;99513.59;;;4.50;47.77
48792;BME280;34587;48.816;9.420;2023-02-28T16:11:25;99519.56;;;4.50;48.13
48792;BME280;34587;48.816;9.420;2023-02-28T16:13:51;99506.69;;;4.47;47.70
48792;BME280;34587;48.816;9.420;2023-02-28T16:16:22;99523.53;;;4.34;47.83
48792;BME280;34587;48.816;9.420;2023-02-28T16:18:49;99528.38;;;4.19;48.12
48792;BME280;34587;48.816;9.420;2023-02-28T16:21:15;99516.31;;;4.15;48.52
48792;BME280;34587;48.816;9.420;2023-02-28T16:23:41;99520.59;;;4.15;48.77
48792;BME280;34587;48.816;9.420;2023-02-28T16:26:07;99529.88;;;4.08;49.08
48792;BME280;34587;48.816;9.420;2023-02-28T16:28:35;99526.53;;;4.12;49.09
48792;BME280;34587;48.816;9.420;2023-02-28T16:31:02;99533.28;;;4.07;48.90
48792;BME280;34587;48.816;9.420;2023-02-28T16:33:30;99535.00;;;4.08;48.98
48792;BME280;34587;48.816;9.420;2023-02-28T16:35:55;99535.59;;;3.96;49.01
48792;BME280;34587;48.816;9.420;2023-02-28T16:38:21;99532.97;;;3.92;49.48
48792;BME280;34587;48.816;9.420;2023-02-28T16:40:49;99538.03;;;3.89;49.63
48792;BME280;34587;48.816;9.420;2023-02-28T16:43:17;99540.38;;;3.79;49.82
48792;BME280;34587;48.816;9.420;2023-02-28T16:45:44;99542.13;;;3.82;49.64
48792;BME280;34587;48.816;9.420;2023-02-28T16:48:14;99546.25;;;3.74;50.23
48792;BME280;34587;48.816;9.420;2023-02-28T16:50:40;99546.19;;;3.72;50.35
48792;BME280;34587;48.816;9.420;2023-02-28T16:53:06;99549.38;;;3.62;50.08
48792;BME280;34587;48.816;9.420;2023-02-28T16:55:31;99549.19;;;3.53;50.34
48792;BME280;34587;48.816;9.420;2023-02-28T16:57:59;99550.78;;;3.48;50.58
48792;BME280;34587;48.816;9.420;2023-02-28T17:00:26;99560.00;;;3.40;50.70
48792;BME280;34587;48.816;9.420;2023-02-28T17:02:52;99555.63;;;3.35;50.96
48792;BME280;34587;48.816;9.420;2023-02-28T17:05:18;99558.88;;;3.28;51.15
48792;BME280;34587;48.816;9.420;2023-02-28T17:07:44;99563.63;;;3.13;51.72
48792;BME280;34587;48.816;9.420;2023-02-28T17:10:26;99573.94;;;3.16;51.60
48792;BME280;34587;48.816;9.420;2023-02-28T17:12:52;99568.63;;;3.08;51.83
48792;BME280;34587;48.816;9.420;2023-02-28T17:15:19;99575.53;;;3.11;51.74
48792;BME280;34587;48.816;9.420;2023-02-28T17:17:46;99577.03;;;3.03;52.34
48792;BME280;34587;48.816;9.420;2023-02-28T17:20:14;99580.19;;;2.93;52.33
48792;BME280;34587;48.816;9.420;2023-02-28T17:22:40;99581.63;;;2.81;52.55
48792;BME280;34587;48.816;9.420;2023-02-28T17:25:06;99583.81;;;2.68;53.21
48792;BME280;34587;48.816;9.420;2023-02-28T17:27:32;99589.06;;;2.72;53.25
48792;BME280;34587;48.816;9.420;2023-02-28T17:29:57;99585.41;;;2.64;53.45
48792;BME280;34587;48.816;9.420;2023-02-28T17:32:23;99586.34;;;2.66;53.11
48792;BME280;34587;48.816;9.420;2023-02-28T17:34:48;99588.06;;;2.67;52.92
48792;BME280;34587;48.816;9.420;2023-02-28T17:37:14;99595.47;;;2.56;53.31
48792;BME280;34587;48.816;9.420;2023-02-28T17:39:39;99595.13;;;2.46;53.96
48792;BME280;34587;48.816;9.420;2023-02-28T17:42:05;99600.06;;;2.38;54.32
48792;BME280;34587;48.816;9.420;2023-02-28T17:44:30;99605.88;;;2.33;54.63
48792;BME280;34587;48.816;9.420;2023-02-28T17:46:55;99606.97;;;2.12;55.05
48792;BME280;34587;48.816;9.420;2023-02-28T17:49:21;99605.88;;;2.33;54.56
48792;BME280;34587;48.816;9.420;2023-02-28T17:51:47;99602.91;;;2.19;54.70
48792;BME280;34587;48.816;9.420;2023-02-28T17:54:13;99602.56;;;2.06;55.34
48792;BME280;34587;48.816;9.420;2023-02-28T17:56:39;99613.28;;;1.95;55.93
48792;BME280;34587;48.816;9.420;2023-02-28T17:59:05;99608.25;;;1.98;56.16
48792;BME280;34587;48.816;9.420;2023-02-28T18:01:30;99612.91;;;1.83;56.33
48792;BME280;34587;48.816;9.420;2023-02-28T18:03:56;99618.09;;;1.84;56.56
48792;BME280;34587;48.816;9.420;2023-02-28T18:06:32;99619.56;;;1.77;57.04
48792;BME280;34587;48.816;9.420;2023-02-28T18:08:58;99615.53;;;1.57;57.53
48792;BME280;34587;48.816;9.420;2023-02-28T18:11:24;99610.97;;;1.47;57.97
48792;BME280;34587;48.816;9.420;2023-02-28T18:13:51;99615.13;;;1.18;59.28
48792;BME280;34587;48.816;9.420;2023-02-28T18:16:18;99616.00;;;1.18;59.90
48792;BME280;34587;48.816;9.420;2023-02-28T18:18:44;99617.03;;;0.98;60.77
48792;BME280;34587;48.816;9.420;2023-02-28T18:21:11;99613.97;;;1.08;60.32
48792;BME280;34587;48.816;9.420;2023-02-28T18:23:37;99608.56;;;0.99;60.37
48792;BME280;34587;48.816;9.420;2023-02-28T18:26:06;99608.94;;;0.86;60.82
48792;BME280;34587;48.816;9.420;2023-02-28T18:28:32;99609.31;;;0.96;60.68
48792;BME280;34587;48.816;9.420;2023-02-28T18:31:04;99610.91;;;1.18;59.64
48792;BME280;34587;48.816;9.420;2023-02-28T18:33:30;99610.91;;;0.93;60.43
48792;BME280;34587;48.816;9.420;2023-02-28T18:35:55;99612.47;;;0.89;60.72
48792;BME280;34587;48.816;9.420;2023-02-28T18:38:21;99621.06;;;0.67;61.60
48792;BME280;34587;48.816;9.420;2023-02-28T18:40:52;99621.47;;;0.54;62.08
48792;BME280;34587;48.816;9.420;2023-02-28T18:43:18;99615.75;;;0.61;62.27
48792;BME280;34587;48.816;9.420;2023-02-28T18:45:43;99613.72;;;0.29;62.98
48792;BME280;34587;48.816;9.420;2023-02-28T18:48:08;99614.34;;;0.21;63.60
48792;BME280;34587;48.816;9.420;2023-02-28T18:50:36;99617.56;;;0.17;63.96
48792;BME280;34587;48.816;9.420;2023-02-28T18:53:02;99607.59;;;0.23;63.66
48792;BME280;34587;48.816;9.420;2023-02-28T18:55:28;99617.13;;;0.05;64.72
48792;BME280;34587;48.816;9.420;2023-02-28T18:57:54;99614.72;;;-0.14;65.45
48792;BME280;34587;48.816;9.420;2023-02-28T19:00:20;99609.63;;;-0.14;65.74
48792;BME280;34587;48.816;9.420;2023-02-28T19:02:48;99612.72;;;-0.21;66.12
48792;BME280;34587;48.816;9.420;2023-02-28T19:05:14;99608.44;;;-0.22;68.20
48792;BME280;34587;48.816;9.420;2023-02-28T19:07:40;99609.25;;;-0.23;66.88
48792;BME280;34587;48.816;9.420;2023-02-28T19:10:06;99608.91;;;-0.33;69.38